sensor_id;sensor_type;location;lat;lon;timestamp;pressure;altitude;pressure_sealevel;temperature;humidity
74372;BME280;62885;51.374;6.170;2023-11-21T00:00:13;63425.19;;;8.29;100.00
74372;BME280;62885;51.374;6.170;2023-11-21T00:02:39;63431.13;;;8.32;100.00
74372;BME280;62885;51.374;6.170;2023-11-21T00:05:12;63387.81;;;8.33;100.00
74372;BME280;62885;51.374;6.170;2023-11-21T00:07:40;63402.06;;;8.32;100.00
74372;BME280;62885;51.374;6.170;2023-11-21T00:10:07;63387.81;;;8.33;100.00
74372;BME280;62885;51.374;6.170;2023-11-21T00:12:36;63436.47;;;8.34;100.00
74372;BME280;62885;51.374;6.170;2023-11-21T00:15:02;63403.69;;;8.33;100.00
74372;BME280;62885;51.374;6.170;2023-11-21T00:17:30;63427.41;;;8.31;100.00
74372;BME280;62885;51.374;6.170;2023-11-21T00:19:56;63399.31;;;8.29;100.00
74372;BME280;62885;51.374;6.170;2023-11-21T00:22:21;63421.88;;;8.23;100.00
74372;BME280;62885;51.374;6.170;2023-11-21T00:24:46;63382.50;;;8.13;100.00
74372;BME280;62885;51.374;6.170;2023-11-21T00:27:13;63386.38;;;8.19;100.00
74372;BME280;62885;51.374;6.170;2023-11-21T00:29:38;63368.81;;;8.15;100.00
74372;BME280;62885;51.374;6.170;2023-11-21T00:32:05;63421.41;;;8.25;100.00
74372;BME280;62885;51.374;6.170;2023-11-21T00:34:31;63376.97;;;8.23;100.00
74372;BME280;62885;51.374;6.170;2023-11-21T00:36:56;63391.56;;;7.97;100.00
74372;BME280;62885;51.374;6.170;2023-11-21T00:39:22;63387.75;;;7.94;100.00
74372;BME280;62885;51.374;6.170;2023-11-21T00:41:49;63392.63;;;7.98;100.00
74372;BME280;62885;51.374;6.170;2023-11-21T00:44:15;63373.81;;;8.05;100.00
74372;BME280;62885;51.374;6.170;2023-11-21T00:46:41;63357.44;;;8.05;100.00
74372;BME280;62885;51.374;6.170;2023-11-21T00:49:06;63365.06;;;7.95;100.00
74372;BME280;62885;51.374;6.170;2023-11-21T00:51:33;63356.47;;;7.89;100.00
74372;BME280;62885;51.374;6.170;2023-11-21T00:53:58;63342.25;;;7.91;100.00
74372;BME280;62885;51.374;6.170;2023-11-21T00:56:24;63355.38;;;7.88;100.00
74372;BME280;62885;51.374;6.170;2023-11-21T00:58:49;63337.91;;;7.87;100.00
74372;BME280;62885;51.374;6.170;2023-11-21T01:01:20;63352.69;;;7.86;100.00
74372;BME280;62885;51.374;6.170;2023-11-21T01:03:48;63335.75;;;7.84;100.00
74372;BME280;62885;51.374;6.170;2023-11-21T01:06:14;63386.53;;;7.88;100.00
74372;BME280;62885;51.374;6.170;2023-11-21T01:08:40;63380.16;;;7.87;100.00
74372;BME280;62885;51.374;6.170;2023-11-21T01:11:05;63382.88;;;7.89;100.00
74372;BME280;62885;51.374;6.170;2023-11-21T01:13:33;63349.41;;;7.82;100.00
74372;BME280;62885;51.374;6.170;2023-11-21T01:16:00;63338.09;;;7.74;100.00
74372;BME280;62885;51.374;6.170;2023-11-21T01:18:26;63345.63;;;7.79;100.00
74372;BME280;62885;51.374;6.170;2023-11-21T01:20:51;63349.94;;;7.83;100.00
74372;BME280;62885;51.374;6.170;2023-11-21T01:23:19;63353.22;;;7.86;100.00
74372;BME280;62885;51.374;6.170;2023-11-21T01:25:44;63347.22;;;7.80;100.00
74372;BME280;62885;51.374;6.170;2023-11-21T01:28:10;63352.13;;;7.85;100.00
74372;BME280;62885;51.374;6.170;2023-11-21T01:30:35;63386.66;;;7.93;100.00
74372;BME280;62885;51.374;6.170;2023-11-21T01:33:00;63348.31;;;7.81;100.00
74372;BME280;62885;51.374;6.170;2023-11-21T01:35:26;63347.22;;;7.80;100.00
74372;BME280;62885;51.374;6.170;2023-11-21T01:37:51;63349.94;;;7.83;100.00
74372;BME280;62885;51.374;6.170;2023-11-21T01:40:17;63381.78;;;7.88;100.00
74372;BME280;62885;51.374;6.170;2023-11-21T01:42:43;63348.75;;;7.97;100.00
74372;BME280;62885;51.374;6.170;2023-11-21T01:45:10;63349.84;;;7.98;100.00
74372;BME280;62885;51.374;6.170;2023-11-21T01:47:37;63357.00;;;7.90;100.00
74372;BME280;62885;51.374;6.170;2023-11-21T01:50:03;63389.38;;;7.95;100.00
74372;BME280;62885;51.374;6.170;2023-11-21T01:52:33;63398.53;;;8.01;100.00
74372;BME280;62885;51.374;6.170;2023-11-21T01:55:00;63394.81;;;8.00;100.00
74372;BME280;62885;51.374;6.170;2023-11-21T01:57:26;63387.22;;;7.93;100.00
74372;BME280;62885;51.374;6.170;2023-11-21T01:59:53;63366.75;;;7.99;100.00
74372;BME280;62885;51.374;6.170;2023-11-21T02:02:19;63372.72;;;8.04;100.00
74372;BME280;62885;51.374;6.170;2023-11-21T02:04:45;63393.72;;;7.99;100.00
74372;BME280;62885;51.374;6.170;2023-11-21T02:07:10;63357.97;;;8.05;100.00
74372;BME280;62885;51.374;6.170;2023-11-21T02:09:36;63362.84;;;8.10;100.00
74372;BME280;62885;51.374;6.170;2023-11-21T02:12:04;63383.59;;;8.14;100.00
74372;BME280;62885;51.374;6.170;2023-11-21T02:14:30;63402.41;;;8.07;100.00
74372;BME280;62885;51.374;6.170;2023-11-21T02:16:56;63359.06;;;8.06;100.00
74372;BME280;62885;51.374;6.170;2023-11-21T02:19:26;63356.88;;;8.04;100.00
74372;BME280;62885;51.374;6.170;2023-11-21T02:21:52;63412.72;;;8.17;100.00
74372;BME280;62885;51.374;6.170;2023-11-21T02:24:22;63382.50;;;8.13;100.00
74372;BME280;62885;51.374;6.170;2023-11-21T02:26:48;63414.22;;;8.13;100.00
74372;BME280;62885;51.374;6.170;2023-11-21T02:29:17;63371.53;;;8.18;100.00
74372;BME280;62885;51.374;6.170;2023-11-21T02:31:44;63412.72;;;8.17;100.00
74372;BME280;62885;51.374;6.170;2023-11-21T02:34:17;63384.13;;;8.15;100.00
74372;BME280;62885;51.374;6.170;2023-11-21T02:36:46;63378.16;;;8.09;100.00
74372;BME280;62885;51.374;6.170;2023-11-21T02:39:14;63403.50;;;8.08;100.00
74372;BME280;62885;51.374;6.170;2023-11-21T02:41:40;63409.47;;;8.14;100.00
74372;BME280;62885;51.374;6.170;2023-11-21T02:44:06;63362.31;;;8.09;100.00
74372;BME280;62885;51.374;6.170;2023-11-21T02:46:36;63378.69;;;8.10;100.00
74372;BME280;62885;51.374;6.170;2023-11-21T02:49:02;63381.97;;;8.13;100.00
74372;BME280;62885;51.374;6.170;2023-11-21T02:51:29;63380.31;;;8.11;100.00
74372;BME280;62885;51.374;6.170;2023-11-21T02:53:55;63369.91;;;8.16;100.00
74372;BME280;62885;51.374;6.170;2023-11-21T02:56:26;63374.91;;;8.06;100.00
74372;BME280;62885;51.374;6.170;2023-11-21T02:58:52;63370.03;;;8.02;100.00
74372;BME280;62885;51.374;6.170;2023-11-21T03:01:18;63354.19;;;8.02;100.00
74372;BME280;62885;51.374;6.170;2023-11-21T03:03:43;63365.03;;;8.12;100.00
74372;BME280;62885;51.374;6.170;2023-11-21T03:06:09;63363.94;;;8.11;100.00
74372;BME280;62885;51.374;6.170;2023-11-21T03:08:34;63374.38;;;8.06;100.00
74372;BME280;62885;51.374;6.170;2023-11-21T03:11:00;63405.66;;;8.10;100.00
74372;BME280;62885;51.374;6.170;2023-11-21T03:13:27;63406.75;;;8.11;100.00
74372;BME280;62885;51.374;6.170;2023-11-21T03:15:53;63377.09;;;8.08;100.00
74372;BME280;62885;51.374;6.170;2023-11-21T03:18:19;63357.44;;;8.05;100.00
74372;BME280;62885;51.374;6.170;2023-11-21T03:20:44;63404.59;;;8.09;100.00
74372;BME280;62885;51.374;6.170;2023-11-21T03:23:12;63368.28;;;8.15;100.00
74372;BME280;62885;51.374;6.170;2023-11-21T03:25:38;63380.88;;;8.12;100.00
74372;BME280;62885;51.374;6.170;2023-11-21T03:28:03;63384.75;;;8.18;100.00
74372;BME280;62885;51.374;6.170;2023-11-21T03:30:29;63385.22;;;8.16;100.00
74372;BME280;62885;51.374;6.170;2023-11-21T03:32:54;63380.97;;;8.14;100.00
74372;BME280;62885;51.374;6.170;2023-11-21T03:35:19;63411.09;;;8.15;100.00
74372;BME280;62885;51.374;6.170;2023-11-21T03:37:46;63380.88;;;8.12;100.00
74372;BME280;62885;51.374;6.170;2023-11-21T03:40:12;63404.66;;;8.12;100.00
74372;BME280;62885;51.374;6.170;2023-11-21T03:42:37;63389.03;;;8.19;100.00
74372;BME280;62885;51.374;6.170;2023-11-21T03:45:04;63367.19;;;8.14;100.00
74372;BME280;62885;51.374;6.170;2023-11-21T03:47:30;63399.22;;;8.07;100.00
74372;BME280;62885;51.374;6.170;2023-11-21T03:49:55;63354.72;;;8.02;100.00
74372;BME280;62885;51.374;6.170;2023-11-21T03:52:20;63399.09;;;8.02;100.00
74372;BME280;62885;51.374;6.170;2023-11-21T03:54:46;63372.66;;;8.02;100.00
74372;BME280;62885;51.374;6.170;2023-11-21T03:57:11;63394.25;;;8.00;100.00
74372;BME280;62885;51.374;6.170;2023-11-21T03:59:39;63372.81;;;8.07;100.00
74372;BME280;62885;51.374;6.170;2023-11-21T04:02:05;63357.44;;;8.05;100.00
74372;BME280;62885;51.374;6.170;2023-11-21T04:04:30;63410.47;;;8.12;100.00
74372;BME280;62885;51.374;6.170;2023-11-21T04:06:55;63369.91;;;8.16;100.00
74372;BME280;62885;51.374;6.170;2023-11-21T04:09:21;63416.00;;;8.20;100.00
74372;BME280;62885;51.374;6.170;2023-11-21T04:11:50;63415.44;;;8.19;100.00
74372;BME280;62885;51.374;6.170;2023-11-21T04:14:15;63373.16;;;8.19;100.00
74372;BME280;62885;51.374;6.170;2023-11-21T04:16:42;63411.63;;;8.16;100.00
74372;BME280;62885;51.374;6.170;2023-11-21T04:19:07;63375.00;;;8.09;100.00
74372;BME280;62885;51.374;6.170;2023-11-21T04:21:35;63353.09;;;8.01;100.00
74372;BME280;62885;51.374;6.170;2023-11-21T04:24:01;63382.50;;;8.13;100.00
74372;BME280;62885;51.374;6.170;2023-11-21T04:26:26;63374.91;;;8.06;100.00
74372;BME280;62885;51.374;6.170;2023-11-21T04:28:51;63380.31;;;8.11;100.00
74372;BME280;62885;51.374;6.170;2023-11-21T04:31:17;63387.94;;;8.18;100.00
74372;BME280;62885;51.374;6.170;2023-11-21T04:33:42;63417.59;;;8.21;100.00
74372;BME280;62885;51.374;6.170;2023-11-21T04:36:08;63389.56;;;8.20;100.00
74372;BME280;62885;51.374;6.170;2023-11-21T04:38:33;63424.13;;;8.27;100.00
74372;BME280;62885;51.374;6.170;2023-11-21T04:40:59;63396.63;;;8.27;100.00
74372;BME280;62885;51.374;6.170;2023-11-21T04:43:24;63425.75;;;8.29;100.00
74372;BME280;62885;51.374;6.170;2023-11-21T04:45:50;63386.28;;;8.17;100.00
74372;BME280;62885;51.374;6.170;2023-11-21T04:48:15;63377.09;;;8.08;100.00
74372;BME280;62885;51.374;6.170;2023-11-21T04:50:40;63404.59;;;8.09;100.00
74372;BME280;62885;51.374;6.170;2023-11-21T04:53:06;63383.59;;;8.14;100.00
74372;BME280;62885;51.374;6.170;2023-11-21T04:55:31;63388.00;;;8.21;100.00
74372;BME280;62885;51.374;6.170;2023-11-21T04:57:56;63377.69;;;8.11;100.00
74372;BME280;62885;51.374;6.170;2023-11-21T05:00:22;63406.69;;;8.09;100.00
74372;BME280;62885;51.374;6.170;2023-11-21T05:02:47;63383.59;;;8.14;100.00
74372;BME280;62885;51.374;6.170;2023-11-21T05:05:13;63369.34;;;8.16;100.00
74372;BME280;62885;51.374;6.170;2023-11-21T05:07:40;63377.16;;;8.11;100.00
74372;BME280;62885;51.374;6.170;2023-11-21T05:10:07;63387.84;;;8.16;100.00
74372;BME280;62885;51.374;6.170;2023-11-21T05:12:42;63380.88;;;8.12;100.00
74372;BME280;62885;51.374;6.170;2023-11-21T05:15:08;63387.94;;;8.18;100.00
74372;BME280;62885;51.374;6.170;2023-11-21T05:17:37;63415.91;;;8.17;100.00
74372;BME280;62885;51.374;6.170;2023-11-21T05:20:07;63408.94;;;8.13;100.00
74372;BME280;62885;51.374;6.170;2023-11-21T05:22:34;63410.47;;;8.12;100.00
74372;BME280;62885;51.374;6.170;2023-11-21T05:25:00;63408.38;;;8.13;100.00
74372;BME280;62885;51.374;6.170;2023-11-21T05:27:26;63406.19;;;8.11;100.00
74372;BME280;62885;51.374;6.170;2023-11-21T05:29:51;63365.56;;;8.12;100.00
74372;BME280;62885;51.374;6.170;2023-11-21T05:32:16;63405.75;;;8.13;100.00
74372;BME280;62885;51.374;6.170;2023-11-21T05:34:43;63398.53;;;8.01;100.00
74372;BME280;62885;51.374;6.170;2023-11-21T05:37:08;63406.19;;;8.11;100.00
74372;BME280;62885;51.374;6.170;2023-11-21T05:39:33;63379.25;;;8.10;100.00
74372;BME280;62885;51.374;6.170;2023-11-21T05:41:59;63356.88;;;8.04;100.00
74372;BME280;62885;51.374;6.170;2023-11-21T05:44:25;63359.59;;;8.07;100.00
74372;BME280;62885;51.374;6.170;2023-11-21T05:46:50;63374.91;;;8.06;100.00
74372;BME280;62885;51.374;6.170;2023-11-21T05:49:16;63378.69;;;8.10;100.00
74372;BME280;62885;51.374;6.170;2023-11-21T05:51:41;63353.63;;;8.01;100.00
74372;BME280;62885;51.374;6.170;2023-11-21T05:54:07;63386.13;;;7.92;100.00
74372;BME280;62885;51.374;6.170;2023-11-21T05:56:33;63398.06;;;8.03;100.00
74372;BME280;62885;51.374;6.170;2023-11-21T05:58:58;63383.41;;;7.90;100.00
74372;BME280;62885;51.374;6.170;2023-11-21T06:01:25;63363.53;;;7.96;100.00
74372;BME280;62885;51.374;6.170;2023-11-21T06:03:54;63356.47;;;7.89;100.00
74372;BME280;62885;51.374;6.170;2023-11-21T06:06:20;63358.63;;;7.91;100.00
74372;BME280;62885;51.374;6.170;2023-11-21T06:08:50;63359.19;;;7.92;100.00
74372;BME280;62885;51.374;6.170;2023-11-21T06:11:15;63339.53;;;7.88;100.00
74372;BME280;62885;51.374;6.170;2023-11-21T06:13:41;63351.50;;;7.82;100.00
74372;BME280;62885;51.374;6.170;2023-11-21T06:16:07;63362.78;;;7.70;100.00
74372;BME280;62885;51.374;6.170;2023-11-21T06:18:32;63363.88;;;7.71;100.00
74372;BME280;62885;51.374;6.170;2023-11-21T06:20:58;63372.50;;;7.77;100.00
74372;BME280;62885;51.374;6.170;2023-11-21T06:23:28;63341.34;;;7.77;100.00
74372;BME280;62885;51.374;6.170;2023-11-21T06:25:53;63368.22;;;7.75;100.00
74372;BME280;62885;51.374;6.170;2023-11-21T06:28:18;63371.47;;;7.78;100.00
74372;BME280;62885;51.374;6.170;2023-11-21T06:30:44;63340.75;;;7.74;100.00
74372;BME280;62885;51.374;6.170;2023-11-21T06:33:12;63371.47;;;7.78;100.00
74372;BME280;62885;51.374;6.170;2023-11-21T06:35:37;63333.03;;;7.82;100.00
74372;BME280;62885;51.374;6.170;2023-11-21T06:38:02;63353.28;;;7.89;100.00
74372;BME280;62885;51.374;6.170;2023-11-21T06:40:28;63337.38;;;7.86;100.00
74372;BME280;62885;51.374;6.170;2023-11-21T06:42:53;63386.06;;;7.90;100.00
74372;BME280;62885;51.374;6.170;2023-11-21T06:45:19;63356.00;;;7.91;100.00
74372;BME280;62885;51.374;6.170;2023-11-21T06:47:45;63355.38;;;7.88;100.00
74372;BME280;62885;51.374;6.170;2023-11-21T06:50:10;63380.16;;;7.87;100.00
74372;BME280;62885;51.374;6.170;2023-11-21T06:52:36;63384.50;;;7.91;100.00
74372;BME280;62885;51.374;6.170;2023-11-21T06:55:01;63357.00;;;7.90;100.00
74372;BME280;62885;51.374;6.170;2023-11-21T06:57:26;63342.78;;;7.91;100.00
74372;BME280;62885;51.374;6.170;2023-11-21T06:59:52;63357.63;;;7.93;100.00
74372;BME280;62885;51.374;6.170;2023-11-21T07:02:17;63384.50;;;7.91;100.00
74372;BME280;62885;51.374;6.170;2023-11-21T07:04:46;63353.75;;;7.87;100.00
74372;BME280;62885;51.374;6.170;2023-11-21T07:07:11;63349.94;;;7.83;100.00
74372;BME280;62885;51.374;6.170;2023-11-21T07:09:37;63354.84;;;7.88;100.00
74372;BME280;62885;51.374;6.170;2023-11-21T07:12:02;63348.31;;;7.81;100.00
74372;BME280;62885;51.374;6.170;2023-11-21T07:14:29;63347.84;;;7.83;100.00
74372;BME280;62885;51.374;6.170;2023-11-21T07:16:54;63375.81;;;7.82;100.00
74372;BME280;62885;51.374;6.170;2023-11-21T07:19:20;63381.19;;;7.85;100.00
74372;BME280;62885;51.374;6.170;2023-11-21T07:21:46;63345.06;;;7.78;100.00
74372;BME280;62885;51.374;6.170;2023-11-21T07:24:12;63332.47;;;7.81;100.00
74372;BME280;62885;51.374;6.170;2023-11-21T07:26:37;63334.22;;;7.68;100.00
74372;BME280;62885;51.374;6.170;2023-11-21T07:29:03;63336.38;;;7.70;100.00
74372;BME280;62885;51.374;6.170;2023-11-21T07:31:29;63334.84;;;7.71;100.00
74372;BME280;62885;51.374;6.170;2023-11-21T07:33:55;63330.88;;;7.80;100.00
74372;BME280;62885;51.374;6.170;2023-11-21T07:36:23;63381.78;;;7.88;100.00
74372;BME280;62885;51.374;6.170;2023-11-21T07:38:49;63353.81;;;7.89;100.00
74372;BME280;62885;51.374;6.170;2023-11-21T07:41:16;63380.69;;;7.87;100.00
74372;BME280;62885;51.374;6.170;2023-11-21T07:43:43;63362.44;;;7.95;100.00
74372;BME280;62885;51.374;6.170;2023-11-21T07:46:08;63361.88;;;7.94;100.00
74372;BME280;62885;51.374;6.170;2023-11-21T07:48:34;63361.34;;;7.94;100.00
74372;BME280;62885;51.374;6.170;2023-11-21T07:51:01;63388.28;;;7.94;100.00
74372;BME280;62885;51.374;6.170;2023-11-21T07:53:27;63341.16;;;7.90;100.00
74372;BME280;62885;51.374;6.170;2023-11-21T07:55:54;63359.19;;;7.92;100.00
74372;BME280;62885;51.374;6.170;2023-11-21T07:58:20;63345.50;;;7.94;100.00
74372;BME280;62885;51.374;6.170;2023-11-21T08:00:46;63337.91;;;7.87;100.00
74372;BME280;62885;51.374;6.170;2023-11-21T08:03:13;63344.41;;;7.93;100.00
74372;BME280;62885;51.374;6.170;2023-11-21T08:05:38;63340.63;;;7.89;100.00
74372;BME280;62885;51.374;6.170;2023-11-21T08:08:04;63365.69;;;7.98;100.00
74372;BME280;62885;51.374;6.170;2023-11-21T08:10:29;63395.34;;;8.01;100.00
74372;BME280;62885;51.374;6.170;2023-11-21T08:12:55;63363.53;;;7.96;100.00
74372;BME280;62885;51.374;6.170;2023-11-21T08:15:20;63359.72;;;7.92;100.00
74372;BME280;62885;51.374;6.170;2023-11-21T08:17:46;63349.84;;;7.98;100.00
74372;BME280;62885;51.374;6.170;2023-11-21T08:20:12;63370.03;;;8.02;100.00
74372;BME280;62885;51.374;6.170;2023-11-21T08:22:37;63372.19;;;8.04;100.00
74372;BME280;62885;51.374;6.170;2023-11-21T08:25:06;63401.88;;;8.07;100.00
74372;BME280;62885;51.374;6.170;2023-11-21T08:27:33;63381.41;;;8.12;100.00
74372;BME280;62885;51.374;6.170;2023-11-21T08:29:59;63381.97;;;8.13;100.00
74372;BME280;62885;51.374;6.170;2023-11-21T08:32:25;63381.97;;;8.13;100.00
74372;BME280;62885;51.374;6.170;2023-11-21T08:34:50;63383.06;;;8.14;100.00
74372;BME280;62885;51.374;6.170;2023-11-21T08:37:16;63413.25;;;8.17;100.00
74372;BME280;62885;51.374;6.170;2023-11-21T08:39:44;63371.00;;;8.17;100.00
74372;BME280;62885;51.374;6.170;2023-11-21T08:42:09;63411.63;;;8.16;100.00
74372;BME280;62885;51.374;6.170;2023-11-21T08:44:34;63378.59;;;8.24;100.00
74372;BME280;62885;51.374;6.170;2023-11-21T08:47:00;63389.03;;;8.19;100.00
74372;BME280;62885;51.374;6.170;2023-11-21T08:49:25;63373.16;;;8.19;100.00
74372;BME280;62885;51.374;6.170;2023-11-21T08:51:53;63419.78;;;8.23;100.00
74372;BME280;62885;51.374;6.170;2023-11-21T08:54:20;63417.06;;;8.21;100.00
74372;BME280;62885;51.374;6.170;2023-11-21T08:56:46;63389.56;;;8.20;100.00
74372;BME280;62885;51.374;6.170;2023-11-21T08:59:12;63423.56;;;8.27;100.00
74372;BME280;62885;51.374;6.170;2023-11-21T09:01:39;63402.50;;;8.30;100.00
74372;BME280;62885;51.374;6.170;2023-11-21T09:04:05;63386.75;;;8.32;100.00
74372;BME280;62885;51.374;6.170;2023-11-21T09:06:31;63437.72;;;8.40;100.00
74372;BME280;62885;51.374;6.170;2023-11-21T09:08:56;63430.09;;;8.33;100.00
74372;BME280;62885;51.374;6.170;2023-11-21T09:11:22;63403.69;;;8.33;100.00
74372;BME280;62885;51.374;6.170;2023-11-21T09:13:47;63405.31;;;8.35;100.00
74372;BME280;62885;51.374;6.170;2023-11-21T09:16:14;63399.22;;;8.44;100.00
74372;BME280;62885;51.374;6.170;2023-11-21T09:18:40;63410.75;;;8.40;100.00
74372;BME280;62885;51.374;6.170;2023-11-21T09:21:06;63410.28;;;8.42;100.00
74372;BME280;62885;51.374;6.170;2023-11-21T09:23:31;63419.97;;;8.48;100.00
74372;BME280;62885;51.374;6.170;2023-11-21T09:25:56;63444.78;;;8.47;100.00
74372;BME280;62885;51.374;6.170;2023-11-21T09:28:24;63427.03;;;8.55;100.00
74372;BME280;62885;51.374;6.170;2023-11-21T09:30:51;63435.16;;;8.62;100.00
74372;BME280;62885;51.374;6.170;2023-11-21T09:33:17;63429.19;;;8.57;100.00
74372;BME280;62885;51.374;6.170;2023-11-21T09:35:42;63460.53;;;8.61;100.00
74372;BME280;62885;51.374;6.170;2023-11-21T09:38:09;63419.28;;;8.62;100.00
74372;BME280;62885;51.374;6.170;2023-11-21T09:40:36;63426.34;;;8.69;100.00
74372;BME280;62885;51.374;6.170;2023-11-21T09:43:09;63473.03;;;8.73;100.00
74372;BME280;62885;51.374;6.170;2023-11-21T09:45:45;63448.81;;;8.78;100.00
74372;BME280;62885;51.374;6.170;2023-11-21T09:48:11;63452.06;;;8.81;100.00
74372;BME280;62885;51.374;6.170;2023-11-21T09:50:37;63478.44;;;8.78;100.00
74372;BME280;62885;51.374;6.170;2023-11-21T09:55:32;63441.00;;;8.83;100.00
74372;BME280;62885;51.374;6.170;2023-11-21T09:58:02;63443.19;;;8.85;100.00
74372;BME280;62885;51.374;6.170;2023-11-21T10:00:29;63482.78;;;8.82;100.00
74372;BME280;62885;51.374;6.170;2023-11-21T10:02:57;63483.78;;;8.81;100.00
74372;BME280;62885;51.374;6.170;2023-11-21T10:05:23;63442.09;;;8.84;100.00
74372;BME280;62885;51.374;6.170;2023-11-21T10:07:49;63447.00;;;8.88;100.00
74372;BME280;62885;51.374;6.170;2023-11-21T10:10:18;63448.06;;;8.89;100.00
74372;BME280;62885;51.374;6.170;2023-11-21T10:12:50;63473.72;;;8.98;100.00
74372;BME280;62885;51.374;6.170;2023-11-21T10:15:21;63461.66;;;9.02;100.00
74372;BME280;62885;51.374;6.170;2023-11-21T10:17:48;63470.47;;;8.95;100.00
74372;BME280;62885;51.374;6.170;2023-11-21T10:20:14;63455.69;;;8.96;100.00
74372;BME280;62885;51.374;6.170;2023-11-21T10:22:41;63454.03;;;8.95;100.00
74372;BME280;62885;51.374;6.170;2023-11-21T10:25:10;63467.75;;;8.93;100.00
74372;BME280;62885;51.374;6.170;2023-11-21T10:27:38;63509.41;;;9.07;100.00
74372;BME280;62885;51.374;6.170;2023-11-21T10:30:05;63486.19;;;9.10;100.00
74372;BME280;62885;51.374;6.170;2023-11-21T10:32:31;63499.63;;;8.98;100.00
74372;BME280;62885;51.374;6.170;2023-11-21T10:34:58;63481.31;;;9.05;100.00
74372;BME280;62885;51.374;6.170;2023-11-21T10:37:38;63523.47;;;9.18;100.00
74372;BME280;62885;51.374;6.170;2023-11-21T10:40:11;63480.66;;;9.20;100.00
74372;BME280;62885;51.374;6.170;2023-11-21T10:42:40;63493.81;;;9.17;100.00
74372;BME280;62885;51.374;6.170;2023-11-21T10:45:07;63526.25;;;9.23;100.00
74372;BME280;62885;51.374;6.170;2023-11-21T10:47:40;63494.22;;;9.32;100.00
74372;BME280;62885;51.374;6.170;2023-11-21T10:50:07;63498.03;;;9.36;100.00
74372;BME280;62885;51.374;6.170;2023-11-21T10:52:45;63493.66;;;9.32;100.00
74372;BME280;62885;51.374;6.170;2023-11-21T10:55:19;63530.13;;;9.29;100.00
74372;BME280;62885;51.374;6.170;2023-11-21T10:57:52;63546.38;;;9.41;100.00
74372;BME280;62885;51.374;6.170;2023-11-21T11:00:18;63509.44;;;9.46;100.00
74372;BME280;62885;51.374;6.170;2023-11-21T11:02:51;63510.53;;;9.47;100.00
74372;BME280;62885;51.374;6.170;2023-11-21T11:05:20;63524.78;;;9.46;100.00
74372;BME280;62885;51.374;6.170;2023-11-21T11:07:50;63550.69;;;9.45;100.00
74372;BME280;62885;51.374;6.170;2023-11-21T11:10:20;63527.50;;;9.48;100.00
74372;BME280;62885;51.374;6.170;2023-11-21T11:12:48;63530.75;;;9.52;100.00
74372;BME280;62885;51.374;6.170;2023-11-21T11:15:15;63518.13;;;9.55;100.00
74372;BME280;62885;51.374;6.170;2023-11-21T11:17:41;63561.03;;;9.55;100.00
74372;BME280;62885;51.374;6.170;2023-11-21T11:20:11;63537.28;;;9.58;100.00
74372;BME280;62885;51.374;6.170;2023-11-21T11:22:44;63540.53;;;9.61;100.00
74372;BME280;62885;51.374;6.170;2023-11-21T11:27:55;63540.53;;;9.61;100.00
74372;BME280;62885;51.374;6.170;2023-11-21T11:38:35;63537.16;;;9.72;100.00
74372;BME280;62885;51.374;6.170;2023-11-21T11:41:05;63577.41;;;9.73;100.00
74372;BME280;62885;51.374;6.170;2023-11-21T11:43:31;63553.03;;;9.72;100.00
74372;BME280;62885;51.374;6.170;2023-11-21T11:46:09;63571.41;;;9.67;100.00
74372;BME280;62885;51.374;6.170;2023-11-21T11:48:39;63544.88;;;9.65;100.00
74372;BME280;62885;51.374;6.170;2023-11-21T11:51:13;63567.03;;;9.61;100.00
74372;BME280;62885;51.374;6.170;2023-11-21T11:53:47;63568.09;;;9.62;100.00
74372;BME280;62885;51.374;6.170;2023-11-21T11:58:48;63526.47;;;9.50;100.00
74372;BME280;62885;51.374;6.170;2023-11-21T12:01:16;63559.41;;;9.54;100.00
74372;BME280;62885;51.374;6.170;2023-11-21T12:03:42;63528.56;;;9.49;100.00
74372;BME280;62885;51.374;6.170;2023-11-21T12:06:08;63524.78;;;9.46;100.00
74372;BME280;62885;51.374;6.170;2023-11-21T12:08:37;63546.97;;;9.44;100.00
74372;BME280;62885;51.374;6.170;2023-11-21T12:11:03;63500.19;;;9.38;100.00
74372;BME280;62885;51.374;6.170;2023-11-21T12:13:29;63499.66;;;9.37;100.00
74372;BME280;62885;51.374;6.170;2023-11-21T12:15:55;63498.56;;;9.36;100.00
74372;BME280;62885;51.374;6.170;2023-11-21T12:18:21;63507.94;;;9.30;100.00
74372;BME280;62885;51.374;6.170;2023-11-21T12:20:46;63538.75;;;9.34;100.00
74372;BME280;62885;51.374;6.170;2023-11-21T12:23:14;63506.31;;;9.29;100.00
74372;BME280;62885;51.374;6.170;2023-11-21T12:25:40;63504.66;;;9.27;100.00
74372;BME280;62885;51.374;6.170;2023-11-21T12:28:06;63504.66;;;9.27;100.00
74372;BME280;62885;51.374;6.170;2023-11-21T12:30:33;63532.22;;;9.28;100.00
74372;BME280;62885;51.374;6.170;2023-11-21T12:33:01;63528.97;;;9.25;100.00
74372;BME280;62885;51.374;6.170;2023-11-21T12:35:32;63527.34;;;9.24;100.00
74372;BME280;62885;51.374;6.170;2023-11-21T12:38:01;63524.63;;;9.21;100.00
74372;BME280;62885;51.374;6.170;2023-11-21T12:40:30;63486.63;;;9.25;100.00
74372;BME280;62885;51.374;6.170;2023-11-21T12:42:58;63538.75;;;9.34;100.00
74372;BME280;62885;51.374;6.170;2023-11-21T12:45:24;63531.69;;;9.28;100.00
74372;BME280;62885;51.374;6.170;2023-11-21T12:47:59;63494.75;;;9.33;100.00
74372;BME280;62885;51.374;6.170;2023-11-21T12:50:27;63511.72;;;9.34;100.00
74372;BME280;62885;51.374;6.170;2023-11-21T12:53:01;63505.22;;;9.28;100.00
74372;BME280;62885;51.374;6.170;2023-11-21T12:55:31;63513.38;;;9.35;100.00
74372;BME280;62885;51.374;6.170;2023-11-21T12:57:56;63498.56;;;9.36;100.00
74372;BME280;62885;51.374;6.170;2023-11-21T13:00:33;63514.47;;;9.36;100.00
74372;BME280;62885;51.374;6.170;2023-11-21T13:03:03;63507.25;;;9.44;100.00
74372;BME280;62885;51.374;6.170;2023-11-21T13:05:37;63498.56;;;9.36;100.00
74372;BME280;62885;51.374;6.170;2023-11-21T13:08:14;63489.34;;;9.28;100.00
74372;BME280;62885;51.374;6.170;2023-11-21T13:10:44;63545.28;;;9.40;100.00
74372;BME280;62885;51.374;6.170;2023-11-21T13:13:12;63516.06;;;9.38;100.00